This is the latest recevied weather packets stored in our database for station/object WA1TYB-13. If no packets are shown the sender has not sent any weather packets the latest 10 day(s).
| Time | Temp. | Humidity | Pressure | Rain* | Wind** | Luminosity | Snow |
|---|---|---|---|---|---|---|---|
| 1777506050 | 13.89° C | 26% | 1023 hPa | 0 mm | - | 109 W/m² | - |
| 1777505745 | 13.89° C | 26% | 1023.1 hPa | 0 mm | - | 193 W/m² | - |
| 1777505443 | 13.89° C | 26% | 1023.3 hPa | 0 mm | - | 240 W/m² | - |
| 1777505139 | 14.44° C | 25% | 1022.8 hPa | 0 mm | - | 414 W/m² | - |
| 1777504836 | 14.44° C | 27% | 1022.8 hPa | 0 mm | - | 373 W/m² | - |
| 1777504533 | 13.89° C | 26% | 1023 hPa | 0 mm | - | 461 W/m² | - |
| 1777504229 | 13.89° C | 28% | 1022.8 hPa | 0 mm | - | 306 W/m² | - |
| 1777503925 | 13.33° C | 29% | 1023.1 hPa | 0 mm | - | 254 W/m² | - |
| 1777503621 | 13.33° C | 29% | 1022.8 hPa | 0 mm | - | 187 W/m² | - |
| 1777503318 | 13.89° C | 27% | 1022.8 hPa | 0 mm | - | 180 W/m² | - |
| 1777503015 | 13.89° C | 28% | 1023 hPa | 0 mm | - | 485 W/m² | - |
| 1777502712 | 13.33° C | 28% | 1022.7 hPa | 0 mm | - | 202 W/m² | - |
| 1777502409 | 13.89° C | 27% | 1022.8 hPa | 0 mm | - | 145 W/m² | - |
| 1777502106 | 14.44° C | 24% | 1022.8 hPa | 0 mm | - | 366 W/m² | - |
| 1777501804 | 14.44° C | 27% | 1022.7 hPa | 0 mm | - | 190 W/m² | - |
| 1777501500 | 15° C | 26% | 1022.5 hPa | 0 mm | - | 160 W/m² | - |
| 1777501197 | 13.89° C | 25% | 1022.5 hPa | 0 mm | - | 558 W/m² | - |
| 1777500895 | 13.33° C | 27% | 1022.8 hPa | 0 mm | - | 107 W/m² | - |
| 1777500592 | 14.44° C | 23% | 1023 hPa | 0 mm | - | 572 W/m² | - |
| 1777500288 | 14.44° C | 24% | 1022.7 hPa | 0 mm | - | 574 W/m² | - |
| 1777499985 | 15° C | 27% | 1023.2 hPa | 0 mm | - | 543 W/m² | - |
| 1777499682 | 15° C | 27% | 1023 hPa | 0 mm | - | 554 W/m² | - |
| 1777499378 | 14.44° C | 26% | 1023.1 hPa | 0 mm | - | 598 W/m² | - |
| 1777499077 | 14.44° C | 28% | 1023.1 hPa | 0 mm | - | 146 W/m² | - |
| 1777498773 | 14.44° C | 30% | 1022.7 hPa | 0 mm | - | 390 W/m² | - |
* Rain latest hour (hover to see other rain measurements)
** Current wind speed in m/s (hover to see current wind gust speed)